createdAt,value
2022-08-31T00:00:40.057Z,83.00
2022-08-31T00:01:55.342Z,82.94
2022-08-31T00:03:10.794Z,83.01
2022-08-31T00:04:09.169Z,83.21
2022-08-31T00:05:06.818Z,83.07
2022-08-31T00:06:05.104Z,83.08
2022-08-31T00:07:01.729Z,83.14
2022-08-31T00:07:58.390Z,82.97
2022-08-31T00:08:55.234Z,82.59
2022-08-31T00:09:51.920Z,82.61
2022-08-31T00:10:49.714Z,81.94
2022-08-31T00:11:46.418Z,81.75
2022-08-31T00:12:47.473Z,81.80
2022-08-31T00:13:44.534Z,81.83
2022-08-31T00:14:41.257Z,81.69
2022-08-31T00:15:38.117Z,81.52
2022-08-31T00:16:37.507Z,81.18
2022-08-31T00:17:34.231Z,81.46
2022-08-31T00:18:31.077Z,81.08
2022-08-31T00:19:27.864Z,81.60
2022-08-31T00:20:33.664Z,81.19
2022-08-31T00:21:31.471Z,80.85
2022-08-31T00:22:28.118Z,80.69
2022-08-31T00:23:26.217Z,80.79
2022-08-31T00:24:22.873Z,80.70
2022-08-31T00:25:20.257Z,81.02
2022-08-31T00:26:17.212Z,80.95
2022-08-31T00:27:15.423Z,80.62
2022-08-31T00:28:13.344Z,80.36
2022-08-31T00:29:10.563Z,79.58
2022-08-31T00:30:08.474Z,79.79
2022-08-31T00:31:05.096Z,80.30
2022-08-31T00:32:03.020Z,80.18
2022-08-31T00:33:01.247Z,79.91
2022-08-31T00:33:57.872Z,79.97
2022-08-31T00:34:54.992Z,79.81
2022-08-31T00:35:51.633Z,80.06
2022-08-31T00:36:48.358Z,80.57
2022-08-31T00:37:44.954Z,80.69
2022-08-31T00:38:42.482Z,80.87
2022-08-31T00:39:39.109Z,81.15
2022-08-31T00:40:44.330Z,81.25
2022-08-31T00:41:41.912Z,81.42
2022-08-31T00:42:38.588Z,82.00
2022-08-31T00:43:45.949Z,82.56
2022-08-31T00:44:42.682Z,82.87
2022-08-31T00:45:39.436Z,83.61
2022-08-31T00:46:40.314Z,84.04
2022-08-31T00:47:37.469Z,83.80
2022-08-31T00:48:37.226Z,83.95
2022-08-31T00:49:38.700Z,83.40
2022-08-31T00:50:35.423Z,83.19
2022-08-31T00:51:36.285Z,83.93
2022-08-31T00:52:38.105Z,84.37
2022-08-31T00:53:36.571Z,84.22
2022-08-31T00:54:41.384Z,84.93
2022-08-31T00:55:38.173Z,85.26
2022-08-31T00:56:37.333Z,85.25
2022-08-31T00:57:39.891Z,86.27
2022-08-31T00:58:36.757Z,86.76
2022-08-31T00:59:33.665Z,86.49
2022-08-31T01:00:31.548Z,86.56
2022-08-31T01:01:30.454Z,86.51
2022-08-31T01:02:27.103Z,86.26
2022-08-31T01:03:26.363Z,85.86
2022-08-31T01:04:23.183Z,86.14
2022-08-31T01:05:21.162Z,86.76
2022-08-31T01:06:18.748Z,86.54
2022-08-31T01:07:15.649Z,86.46
2022-08-31T01:08:12.754Z,86.37
2022-08-31T01:09:10.701Z,86.51
2022-08-31T01:10:08.988Z,86.23
2022-08-31T01:11:06.864Z,86.98
2022-08-31T01:12:07.801Z,87.37
2022-08-31T01:13:06.030Z,87.51
2022-08-31T01:14:02.872Z,87.75
2022-08-31T01:15:02.974Z,87.75
2022-08-31T01:16:05.666Z,87.93
2022-08-31T01:17:03.064Z,87.76
2022-08-31T01:18:02.289Z,87.65
2022-08-31T01:19:02.590Z,87.68
2022-08-31T01:20:28.421Z,87.60
2022-08-31T01:21:49.079Z,87.07
2022-08-31T01:22:51.849Z,87.27
2022-08-31T01:23:48.529Z,88.04
2022-08-31T01:24:48.092Z,88.26
2022-08-31T01:25:47.349Z,88.40
2022-08-31T01:26:44.825Z,88.75
2022-08-31T01:27:52.876Z,88.56
2022-08-31T01:28:52.502Z,88.30
2022-08-31T01:29:49.325Z,87.67
2022-08-31T01:31:21.097Z,87.02
2022-08-31T01:32:17.889Z,86.63
2022-08-31T01:33:14.609Z,87.32
2022-08-31T01:34:11.383Z,87.63
2022-08-31T01:35:11.616Z,87.92
2022-08-31T01:36:13.063Z,88.05
2022-08-31T01:37:12.519Z,88.10
2022-08-31T01:38:11.020Z,88.40
2022-08-31T01:39:09.350Z,88.23
2022-08-31T01:40:07.058Z,88.47
2022-08-31T01:41:04.929Z,88.48
2022-08-31T01:42:01.650Z,88.58
2022-08-31T01:42:58.315Z,88.87
2022-08-31T01:43:55.343Z,88.99
2022-08-31T01:44:51.988Z,88.92
2022-08-31T01:45:49.798Z,89.14
2022-08-31T01:46:46.589Z,89.02
2022-08-31T01:47:43.233Z,88.66
2022-08-31T01:48:43.647Z,88.64
2022-08-31T01:49:40.320Z,88.32
2022-08-31T01:50:37.096Z,87.92
2022-08-31T01:51:34.412Z,87.62
2022-08-31T01:52:31.020Z,87.83
2022-08-31T01:53:27.656Z,88.61
2022-08-31T01:54:27.175Z,88.72
2022-08-31T01:55:23.826Z,88.67
2022-08-31T01:56:24.810Z,88.25
2022-08-31T01:57:26.975Z,88.66
2022-08-31T01:58:31.101Z,89.59
2022-08-31T01:59:28.054Z,90.00
2022-08-31T02:00:24.999Z,89.89
2022-08-31T02:01:34.051Z,89.53
2022-08-31T02:02:32.017Z,89.77
2022-08-31T02:03:28.714Z,90.07
2022-08-31T02:04:27.302Z,90.80
2022-08-31T02:05:23.889Z,91.21
2022-08-31T02:06:20.557Z,91.50
2022-08-31T02:07:17.256Z,91.65
2022-08-31T02:08:14.016Z,92.08
2022-08-31T02:09:11.527Z,92.14
2022-08-31T02:10:08.987Z,91.21
2022-08-31T02:11:07.251Z,91.25
2022-08-31T02:12:04.489Z,91.21
2022-08-31T02:13:01.486Z,90.53
2022-08-31T02:13:58.263Z,89.33
2022-08-31T02:14:54.975Z,88.42
2022-08-31T02:15:51.714Z,88.41
2022-08-31T02:16:49.361Z,88.88
2022-08-31T02:17:46.128Z,88.72
2022-08-31T02:18:42.890Z,88.46
2022-08-31T02:19:39.535Z,88.85
2022-08-31T02:20:37.307Z,89.30
2022-08-31T02:21:36.802Z,89.28
2022-08-31T02:22:33.869Z,89.08
2022-08-31T02:23:30.688Z,89.44
2022-08-31T02:24:27.330Z,90.12
2022-08-31T02:25:24.288Z,90.19
2022-08-31T02:26:21.104Z,89.90
2022-08-31T02:27:17.840Z,90.55
2022-08-31T02:28:15.030Z,91.20
2022-08-31T02:29:11.889Z,91.77
2022-08-31T02:30:12.253Z,92.24
2022-08-31T02:31:09.021Z,91.92
2022-08-31T02:32:06.004Z,91.33
2022-08-31T02:33:02.683Z,90.91
2022-08-31T02:33:59.309Z,90.58
2022-08-31T02:34:55.980Z,90.31
2022-08-31T02:35:53.592Z,90.24
2022-08-31T02:36:50.818Z,89.83
2022-08-31T02:37:48.053Z,89.51
2022-08-31T02:38:44.890Z,89.51
2022-08-31T02:39:41.778Z,89.28
2022-08-31T02:40:41.031Z,90.29
2022-08-31T02:41:38.018Z,90.57
2022-08-31T02:42:53.613Z,90.77
2022-08-31T02:43:50.995Z,90.66
2022-08-31T02:44:47.679Z,90.57
2022-08-31T02:45:44.396Z,90.21
2022-08-31T02:46:47.784Z,90.51
2022-08-31T02:47:44.631Z,89.99
2022-08-31T02:48:41.261Z,90.24
2022-08-31T02:49:37.975Z,90.23
2022-08-31T02:50:42.157Z,90.33
2022-08-31T02:51:42.801Z,89.84
2022-08-31T02:52:39.741Z,90.72
2022-08-31T02:53:37.902Z,90.73
2022-08-31T02:54:34.660Z,90.36
2022-08-31T02:55:31.324Z,90.39
2022-08-31T02:56:28.007Z,90.66
2022-08-31T02:57:24.803Z,90.33
2022-08-31T02:58:24.125Z,89.58
2022-08-31T02:59:20.952Z,89.04
2022-08-31T03:00:21.278Z,88.80
2022-08-31T03:01:18.060Z,88.97
2022-08-31T03:02:15.437Z,89.09
2022-08-31T03:03:13.142Z,89.31
2022-08-31T03:04:09.911Z,89.59
2022-08-31T03:05:08.166Z,89.83
2022-08-31T03:06:04.897Z,90.14
2022-08-31T03:07:02.016Z,89.79
2022-08-31T03:07:58.667Z,90.77
2022-08-31T03:08:55.718Z,91.85
2022-08-31T03:09:52.495Z,92.29
2022-08-31T03:10:49.553Z,92.23
2022-08-31T03:11:46.179Z,92.19
2022-08-31T03:12:43.008Z,92.23
2022-08-31T03:13:40.846Z,92.01
2022-08-31T03:14:37.588Z,91.65
2022-08-31T03:15:34.473Z,91.70
2022-08-31T03:16:31.353Z,91.92
2022-08-31T03:17:28.138Z,92.63
2022-08-31T03:18:25.032Z,92.92
2022-08-31T03:19:22.217Z,93.18
2022-08-31T03:20:20.603Z,93.78
2022-08-31T03:21:17.256Z,93.93
2022-08-31T03:22:14.805Z,93.76
2022-08-31T03:23:12.381Z,93.22
2022-08-31T03:24:09.469Z,92.78
2022-08-31T03:25:08.712Z,92.55
2022-08-31T03:26:08.442Z,92.53
2022-08-31T03:27:05.111Z,92.28
2022-08-31T03:28:01.889Z,92.14
2022-08-31T03:28:58.715Z,91.92
2022-08-31T03:29:55.344Z,91.32
2022-08-31T03:30:52.878Z,91.61
2022-08-31T03:31:49.725Z,92.17
2022-08-31T03:32:48.246Z,92.09
2022-08-31T03:33:44.883Z,91.74
2022-08-31T03:34:41.549Z,91.67
2022-08-31T03:35:38.870Z,91.87
2022-08-31T03:36:35.535Z,92.12
2022-08-31T03:37:32.527Z,92.52
2022-08-31T03:38:29.189Z,92.35
2022-08-31T03:39:25.902Z,91.97
2022-08-31T03:40:22.597Z,91.43
2022-08-31T03:41:23.663Z,91.35
2022-08-31T03:42:20.556Z,91.42
2022-08-31T03:43:17.927Z,91.16
2022-08-31T03:44:14.977Z,91.52
2022-08-31T03:45:12.211Z,91.27
2022-08-31T03:46:08.842Z,91.67
2022-08-31T03:47:09.648Z,91.42
2022-08-31T03:48:12.792Z,91.94
2022-08-31T03:49:12.478Z,92.42
2022-08-31T03:50:11.007Z,92.53
2022-08-31T03:51:08.081Z,92.14
2022-08-31T03:52:04.950Z,92.25
2022-08-31T03:53:04.263Z,91.61
2022-08-31T03:54:00.940Z,92.05
2022-08-31T03:54:57.639Z,92.56
2022-08-31T03:56:01.751Z,92.97
2022-08-31T03:56:58.555Z,93.73
2022-08-31T03:57:55.545Z,93.68
2022-08-31T03:58:52.259Z,93.21
2022-08-31T03:59:52.991Z,93.33
2022-08-31T04:00:49.634Z,93.76
2022-08-31T04:01:46.295Z,94.24
2022-08-31T04:02:43.959Z,94.30
2022-08-31T04:03:40.709Z,94.18
2022-08-31T04:04:37.407Z,93.71
2022-08-31T04:05:41.907Z,93.14
2022-08-31T04:06:41.618Z,93.61
2022-08-31T04:07:42.934Z,94.02
2022-08-31T04:08:40.811Z,93.75
2022-08-31T04:09:37.444Z,93.11
2022-08-31T04:10:34.080Z,93.12
2022-08-31T04:11:44.677Z,93.16
2022-08-31T04:12:42.386Z,92.92
2022-08-31T04:13:40.456Z,92.82
2022-08-31T04:14:37.418Z,92.03
2022-08-31T04:15:36.362Z,91.63
2022-08-31T04:16:36.217Z,92.02
2022-08-31T04:17:33.517Z,92.26
2022-08-31T04:18:30.243Z,91.65
2022-08-31T04:19:27.029Z,91.50
2022-08-31T04:20:30.002Z,91.83
2022-08-31T04:21:31.074Z,91.54
2022-08-31T04:22:27.937Z,91.20
2022-08-31T04:23:29.345Z,91.32
2022-08-31T04:24:26.123Z,91.65
2022-08-31T04:25:22.916Z,91.83
2022-08-31T04:26:25.706Z,92.00
2022-08-31T04:27:22.611Z,92.02
2022-08-31T04:28:19.311Z,92.45
2022-08-31T04:29:16.033Z,92.91
2022-08-31T04:30:13.217Z,93.37
2022-08-31T04:31:10.182Z,93.75
2022-08-31T04:32:06.963Z,94.46
2022-08-31T04:33:04.495Z,94.72
2022-08-31T04:34:01.176Z,94.82
2022-08-31T04:34:58.132Z,95.12
2022-08-31T04:35:54.771Z,95.19
2022-08-31T04:36:51.613Z,95.48
2022-08-31T04:37:49.042Z,95.49
2022-08-31T04:38:48.988Z,95.52
2022-08-31T04:39:50.937Z,95.39
2022-08-31T04:40:47.960Z,95.44
2022-08-31T04:41:50.104Z,95.39
2022-08-31T04:42:48.386Z,95.45
2022-08-31T04:43:48.207Z,95.37
2022-08-31T04:44:44.813Z,95.15
2022-08-31T04:45:45.127Z,95.42
2022-08-31T04:46:43.026Z,94.96
2022-08-31T04:47:42.005Z,94.54
2022-08-31T04:48:40.406Z,93.78
2022-08-31T04:49:37.030Z,93.28
2022-08-31T04:50:33.627Z,92.80
2022-08-31T04:51:33.077Z,92.24
2022-08-31T04:52:29.762Z,91.78
2022-08-31T04:53:27.187Z,91.70
2022-08-31T04:54:23.841Z,91.51
2022-08-31T04:55:20.497Z,91.76
2022-08-31T04:56:20.787Z,92.17
2022-08-31T04:57:17.475Z,92.62
2022-08-31T04:58:14.223Z,92.80
2022-08-31T04:59:14.577Z,92.88
2022-08-31T05:00:11.582Z,92.83
2022-08-31T05:01:10.393Z,92.96
2022-08-31T05:02:07.250Z,92.83
2022-08-31T05:03:04.271Z,93.20
2022-08-31T05:04:01.589Z,93.10
2022-08-31T05:04:58.434Z,92.84
2022-08-31T05:05:55.211Z,92.71
2022-08-31T05:06:52.034Z,92.37
2022-08-31T05:07:48.700Z,92.40
2022-08-31T05:08:45.585Z,92.19
2022-08-31T05:09:42.664Z,91.78
2022-08-31T05:10:41.303Z,91.34
2022-08-31T05:11:38.213Z,91.47
2022-08-31T05:12:34.900Z,91.30
2022-08-31T05:13:32.020Z,91.02
2022-08-31T05:14:28.691Z,90.37
2022-08-31T05:15:25.382Z,90.25
2022-08-31T05:16:22.080Z,90.82
2022-08-31T05:17:18.815Z,90.73
2022-08-31T05:18:15.471Z,90.75
2022-08-31T05:19:12.541Z,90.75
2022-08-31T05:20:09.557Z,90.70
2022-08-31T05:21:11.873Z,90.57
2022-08-31T05:22:08.653Z,90.18
2022-08-31T05:23:05.548Z,89.71
2022-08-31T05:24:06.583Z,89.94
2022-08-31T05:25:06.982Z,90.14
2022-08-31T05:26:05.460Z,89.59
2022-08-31T05:27:02.756Z,89.48
2022-08-31T05:27:59.765Z,89.05
2022-08-31T05:28:58.407Z,88.45
2022-08-31T05:29:55.094Z,88.04
2022-08-31T05:30:51.846Z,87.64
2022-08-31T05:31:52.287Z,87.17
2022-08-31T05:32:49.536Z,86.43
2022-08-31T05:33:46.151Z,86.70
2022-08-31T05:34:42.803Z,86.27
2022-08-31T05:35:39.941Z,86.29
2022-08-31T05:36:36.592Z,85.83
2022-08-31T05:37:33.352Z,85.99
2022-08-31T05:38:30.525Z,86.09
2022-08-31T05:39:27.300Z,85.52
2022-08-31T05:40:23.951Z,85.21
2022-08-31T05:41:22.271Z,84.29
2022-08-31T05:42:21.160Z,83.60
2022-08-31T05:43:18.129Z,83.77
2022-08-31T05:44:15.657Z,83.91
2022-08-31T05:45:12.493Z,83.81
2022-08-31T05:46:13.395Z,83.61
2022-08-31T05:47:10.166Z,83.80
2022-08-31T05:48:06.881Z,83.31
2022-08-31T05:49:06.283Z,82.95
2022-08-31T05:50:03.413Z,82.97
2022-08-31T05:51:11.451Z,83.34
2022-08-31T05:52:09.573Z,83.38
2022-08-31T05:53:08.074Z,83.43
2022-08-31T05:54:04.827Z,83.50
2022-08-31T05:55:01.528Z,82.50
2022-08-31T05:56:03.871Z,82.67
2022-08-31T05:57:01.257Z,83.28
2022-08-31T05:57:58.249Z,81.84
2022-08-31T05:58:56.216Z,81.79
2022-08-31T05:59:52.946Z,81.86
2022-08-31T06:00:49.546Z,81.48
2022-08-31T06:01:46.406Z,80.46
2022-08-31T06:02:43.202Z,80.64
2022-08-31T06:03:39.874Z,80.42
2022-08-31T06:04:36.478Z,79.98
2022-08-31T06:05:33.126Z,80.48
2022-08-31T06:06:30.250Z,81.05
2022-08-31T06:07:27.060Z,80.37
2022-08-31T06:08:27.089Z,79.95
2022-08-31T06:09:24.521Z,79.56
2022-08-31T06:10:21.278Z,80.10
2022-08-31T06:11:20.755Z,78.92
2022-08-31T06:12:20.569Z,78.12
2022-08-31T06:13:17.700Z,78.57
2022-08-31T06:14:14.780Z,79.03
2022-08-31T06:15:12.005Z,79.05
2022-08-31T06:16:09.926Z,79.28
2022-08-31T06:17:06.979Z,79.50
2022-08-31T06:18:05.520Z,78.81
2022-08-31T06:19:04.736Z,77.11
2022-08-31T06:20:02.292Z,78.39
2022-08-31T06:21:09.242Z,77.60
2022-08-31T06:22:05.910Z,77.01
2022-08-31T06:23:04.152Z,77.66
2022-08-31T06:24:03.304Z,76.84
2022-08-31T06:24:59.952Z,76.55
2022-08-31T06:26:12.753Z,76.70
2022-08-31T06:27:10.380Z,77.03
2022-08-31T06:28:07.466Z,76.02
2022-08-31T06:29:09.479Z,76.23
2022-08-31T06:30:07.956Z,76.42
2022-08-31T06:31:12.095Z,77.40
2022-08-31T06:32:11.047Z,77.01
2022-08-31T06:33:07.889Z,76.62
2022-08-31T06:34:07.188Z,77.42
2022-08-31T06:35:06.600Z,76.93
2022-08-31T06:36:03.643Z,76.05
2022-08-31T06:37:01.378Z,75.98
2022-08-31T06:37:58.541Z,76.81
2022-08-31T06:38:56.359Z,76.93
2022-08-31T06:39:53.873Z,76.22
2022-08-31T06:40:50.862Z,74.72
2022-08-31T06:41:48.984Z,75.06
2022-08-31T06:42:45.716Z,74.11
2022-08-31T06:43:43.421Z,74.07
2022-08-31T06:44:40.118Z,74.55
2022-08-31T06:45:36.848Z,75.20
2022-08-31T06:46:34.910Z,75.03
2022-08-31T06:47:31.706Z,73.72
2022-08-31T06:48:28.538Z,74.56
2022-08-31T06:49:26.085Z,73.55
2022-08-31T06:50:22.756Z,73.34
2022-08-31T06:51:19.423Z,73.95
2022-08-31T06:52:16.136Z,72.78
2022-08-31T06:53:12.732Z,72.95
2022-08-31T06:54:28.551Z,71.69
2022-08-31T06:55:26.401Z,72.65
2022-08-31T06:56:25.409Z,72.70
2022-08-31T06:57:22.759Z,72.72
2022-08-31T06:58:19.389Z,73.83
2022-08-31T06:59:15.997Z,72.65
2022-08-31T07:00:12.713Z,71.42
2022-08-31T07:01:13.637Z,71.90
2022-08-31T07:02:12.693Z,71.22
2022-08-31T07:04:21.316Z,70.30
2022-08-31T07:05:24.526Z,70.69
2022-08-31T07:06:24.361Z,71.96
2022-08-31T07:07:21.036Z,72.70
2022-08-31T07:08:18.806Z,72.70
2022-08-31T07:09:17.963Z,71.79
2022-08-31T07:10:14.739Z,71.74
2022-08-31T07:11:23.762Z,69.85
2022-08-31T07:12:22.312Z,70.78
2022-08-31T07:13:19.092Z,71.32
2022-08-31T07:14:18.819Z,71.34
2022-08-31T07:15:15.469Z,71.75
2022-08-31T07:16:15.375Z,72.37
2022-08-31T07:17:12.404Z,71.39
2022-08-31T07:18:10.550Z,71.08
2022-08-31T07:19:08.039Z,70.36
2022-08-31T07:20:05.036Z,69.87
2022-08-31T07:21:25.957Z,70.27
2022-08-31T07:22:22.608Z,70.27
2022-08-31T07:23:19.398Z,71.53
2022-08-31T07:24:18.748Z,71.46
2022-08-31T07:25:15.624Z,69.28
2022-08-31T07:26:19.372Z,70.12
2022-08-31T07:27:18.314Z,69.28
2022-08-31T07:28:14.981Z,68.74
2022-08-31T07:29:14.964Z,69.76
2022-08-31T07:30:12.527Z,67.91
2022-08-31T07:31:11.361Z,68.56
2022-08-31T07:32:11.948Z,69.05
2022-08-31T07:33:09.450Z,69.29
2022-08-31T07:34:08.223Z,68.84
2022-08-31T07:35:06.508Z,68.55
2022-08-31T07:36:03.370Z,68.40
2022-08-31T07:37:19.641Z,68.76
2022-08-31T07:38:35.343Z,67.87
2022-08-31T07:39:51.852Z,68.74
2022-08-31T07:41:08.133Z,68.17
2022-08-31T07:42:12.332Z,68.36
2022-08-31T07:43:08.944Z,68.67
2022-08-31T07:44:05.648Z,66.95
2022-08-31T07:45:05.733Z,66.66
2022-08-31T07:46:06.795Z,66.47
2022-08-31T07:47:04.685Z,66.20
2022-08-31T07:48:01.791Z,66.22
2022-08-31T07:48:59.358Z,65.10
2022-08-31T07:49:58.519Z,66.72
2022-08-31T07:50:58.415Z,67.13
2022-08-31T07:51:57.229Z,66.98
2022-08-31T07:52:55.716Z,66.84
2022-08-31T07:53:53.786Z,64.95
2022-08-31T07:54:52.910Z,66.38
2022-08-31T07:55:55.575Z,67.33
2022-08-31T07:56:52.846Z,67.12
2022-08-31T07:57:51.840Z,64.32
2022-08-31T07:58:50.133Z,63.97
2022-08-31T07:59:49.611Z,65.02
2022-08-31T08:00:47.809Z,64.55
2022-08-31T08:01:45.217Z,65.70
2022-08-31T08:02:50.858Z,65.77
2022-08-31T08:03:53.566Z,65.22
2022-08-31T08:04:54.016Z,64.58
2022-08-31T08:05:51.983Z,63.00
2022-08-31T08:06:49.124Z,64.36
2022-08-31T08:07:45.740Z,64.83
2022-08-31T08:09:12.917Z,64.17
2022-08-31T08:10:14.283Z,64.03
2022-08-31T08:11:18.736Z,64.11
2022-08-31T08:12:15.398Z,63.24
2022-08-31T08:13:13.330Z,63.64
2022-08-31T08:14:10.273Z,63.57
2022-08-31T08:15:07.457Z,63.95
2022-08-31T08:16:06.368Z,63.86
2022-08-31T08:17:06.561Z,63.94
2022-08-31T08:18:05.251Z,63.53
2022-08-31T08:19:01.941Z,62.58
2022-08-31T08:19:58.595Z,62.83
2022-08-31T08:20:55.538Z,62.66
2022-08-31T08:21:52.399Z,63.49
2022-08-31T08:22:55.377Z,63.36
2022-08-31T08:23:53.094Z,61.47
2022-08-31T08:24:50.550Z,60.11
2022-08-31T08:25:47.828Z,59.31
2022-08-31T08:26:52.123Z,59.64
2022-08-31T08:27:54.252Z,59.75
2022-08-31T08:28:51.329Z,58.41
2022-08-31T08:29:48.546Z,58.65
2022-08-31T08:30:46.928Z,58.89
2022-08-31T08:31:46.285Z,59.13
2022-08-31T08:32:43.172Z,60.17
2022-08-31T08:33:39.839Z,59.95
2022-08-31T08:34:43.491Z,58.96
2022-08-31T08:35:41.109Z,59.11
2022-08-31T08:36:40.864Z,59.12
2022-08-31T08:37:57.816Z,58.39
2022-08-31T08:38:57.488Z,58.51
2022-08-31T08:39:55.902Z,59.18
2022-08-31T08:40:53.340Z,59.40
2022-08-31T08:41:54.433Z,57.04
2022-08-31T08:42:51.137Z,58.66
2022-08-31T08:43:53.155Z,57.15
2022-08-31T08:44:49.988Z,58.16
2022-08-31T08:45:50.018Z,57.63
2022-08-31T08:46:51.406Z,56.72
2022-08-31T08:47:50.000Z,57.85
2022-08-31T08:48:55.577Z,56.88
2022-08-31T08:49:55.016Z,57.56
2022-08-31T08:50:53.371Z,57.00
2022-08-31T08:51:54.875Z,58.44
2022-08-31T08:52:51.741Z,56.99
2022-08-31T08:53:52.266Z,56.72
2022-08-31T08:54:51.473Z,57.58
2022-08-31T08:55:48.283Z,55.84
2022-08-31T08:56:49.157Z,55.18
2022-08-31T08:57:47.782Z,55.98
2022-08-31T08:58:45.327Z,55.98
2022-08-31T08:59:43.784Z,54.76
2022-08-31T09:00:46.759Z,55.68
2022-08-31T09:01:47.296Z,54.75
2022-08-31T09:02:58.497Z,54.74
2022-08-31T09:04:10.390Z,55.68
2022-08-31T09:05:35.513Z,55.19
2022-08-31T09:06:54.637Z,52.53
2022-08-31T09:07:54.281Z,52.99
2022-08-31T09:09:04.070Z,53.46
2022-08-31T09:10:18.952Z,52.61
2022-08-31T09:11:38.722Z,53.54
2022-08-31T09:12:58.725Z,53.66
2022-08-31T09:14:19.294Z,52.19
2022-08-31T09:15:51.943Z,51.33
2022-08-31T09:17:03.703Z,52.72
2022-08-31T09:18:30.513Z,50.41
2022-08-31T09:19:27.227Z,51.43
2022-08-31T09:20:24.220Z,51.44
2022-08-31T09:21:31.011Z,51.63
2022-08-31T09:22:29.289Z,52.96
2022-08-31T09:23:28.162Z,53.87
2022-08-31T09:24:30.276Z,53.65
2022-08-31T09:25:36.025Z,52.55
2022-08-31T09:27:18.550Z,51.13
2022-08-31T09:28:16.433Z,52.88
2022-08-31T09:29:29.270Z,51.76
2022-08-31T09:30:52.360Z,50.58
2022-08-31T09:32:01.081Z,53.70
2022-08-31T09:33:02.232Z,51.88
2022-08-31T09:33:58.970Z,53.08
2022-08-31T09:35:41.280Z,53.29
2022-08-31T09:36:40.978Z,54.30
2022-08-31T09:37:49.029Z,52.76
2022-08-31T09:38:47.293Z,53.60
2022-08-31T09:39:47.763Z,52.79
2022-08-31T09:40:49.805Z,53.17
2022-08-31T09:41:48.883Z,53.58
2022-08-31T09:43:01.017Z,55.25
2022-08-31T09:44:17.971Z,53.81
2022-08-31T09:45:30.058Z,55.24
2022-08-31T09:46:30.385Z,57.28
2022-08-31T09:47:48.948Z,54.48
2022-08-31T09:48:52.431Z,56.08
2022-08-31T09:49:56.023Z,56.77
2022-08-31T09:51:01.203Z,55.84
2022-08-31T09:52:18.932Z,53.81
2022-08-31T09:53:34.251Z,53.55
2022-08-31T09:54:49.693Z,53.26
2022-08-31T09:55:46.389Z,54.65
2022-08-31T09:57:10.712Z,59.00
2022-08-31T09:58:11.193Z,64.88
2022-08-31T09:59:11.744Z,68.95
2022-08-31T10:00:15.198Z,74.69
2022-08-31T10:01:20.292Z,78.62
2022-08-31T10:02:23.182Z,78.55
2022-08-31T10:03:24.414Z,77.95
2022-08-31T10:04:27.828Z,74.38
2022-08-31T10:05:32.438Z,76.62
2022-08-31T10:06:46.778Z,79.51
2022-08-31T10:07:51.447Z,80.03
2022-08-31T10:08:58.062Z,80.40
2022-08-31T10:10:03.395Z,75.71
2022-08-31T10:11:11.417Z,76.74
2022-08-31T10:12:11.692Z,78.02
2022-08-31T10:13:24.973Z,79.52
2022-08-31T10:14:27.682Z,83.07
2022-08-31T10:15:39.549Z,85.10
2022-08-31T10:16:46.224Z,84.76
2022-08-31T10:17:55.663Z,84.42
2022-08-31T10:19:02.029Z,85.33
2022-08-31T10:20:09.852Z,86.30
2022-08-31T10:21:16.201Z,87.61
2022-08-31T10:22:25.511Z,87.59
2022-08-31T10:23:34.878Z,87.55
2022-08-31T10:24:48.298Z,87.68
2022-08-31T10:26:01.066Z,88.17
2022-08-31T10:27:14.921Z,87.50
2022-08-31T10:28:32.128Z,87.75
2022-08-31T10:29:52.217Z,88.09
2022-08-31T10:31:02.973Z,87.93
2022-08-31T10:32:06.045Z,87.45
2022-08-31T10:33:17.966Z,87.87
2022-08-31T10:34:41.654Z,88.44
2022-08-31T10:35:57.911Z,87.71
2022-08-31T10:37:08.122Z,88.15
2022-08-31T10:38:24.171Z,87.76
2022-08-31T10:39:45.404Z,87.25
2022-08-31T10:40:51.307Z,86.74
2022-08-31T10:41:49.952Z,86.56
2022-08-31T10:42:59.357Z,86.09
2022-08-31T10:44:06.333Z,86.17
2022-08-31T10:45:19.100Z,86.03
2022-08-31T10:46:16.665Z,85.53
2022-08-31T10:47:21.562Z,85.48
2022-08-31T10:48:29.644Z,85.33
2022-08-31T10:49:26.629Z,85.54
2022-08-31T10:50:46.110Z,85.63
2022-08-31T10:51:55.993Z,84.51
2022-08-31T10:53:15.998Z,83.54
2022-08-31T10:54:17.006Z,83.07
2022-08-31T10:55:58.690Z,82.74
2022-08-31T10:57:31.571Z,82.42
2022-08-31T10:58:40.801Z,82.21
2022-08-31T10:59:54.066Z,82.82
2022-08-31T11:01:05.988Z,83.13
2022-08-31T11:02:29.770Z,83.51
2022-08-31T11:03:35.510Z,84.11
2022-08-31T11:04:48.928Z,84.28
2022-08-31T11:05:57.726Z,84.91
2022-08-31T11:07:26.693Z,84.89
2022-08-31T11:08:54.153Z,84.59
2022-08-31T11:10:19.948Z,84.42
2022-08-31T11:11:25.304Z,84.83
2022-08-31T11:12:31.989Z,85.53
2022-08-31T11:13:38.518Z,85.55
2022-08-31T11:15:11.821Z,85.39
2022-08-31T11:16:28.039Z,84.36
2022-08-31T11:17:50.128Z,84.83
2022-08-31T11:19:10.107Z,83.72
2022-08-31T11:20:28.744Z,83.22
2022-08-31T11:21:47.149Z,81.69
2022-08-31T11:23:05.999Z,82.10
2022-08-31T11:24:24.139Z,80.63
2022-08-31T11:25:47.524Z,80.09
2022-08-31T11:27:14.256Z,80.25
2022-08-31T11:28:35.882Z,79.35
2022-08-31T11:29:41.630Z,77.24
2022-08-31T11:30:50.080Z,79.03
2022-08-31T11:31:49.956Z,79.20
2022-08-31T11:32:52.087Z,78.29
2022-08-31T11:34:15.173Z,78.58
2022-08-31T11:35:15.686Z,78.96
2022-08-31T11:36:12.411Z,78.08
2022-08-31T11:37:09.799Z,77.15
2022-08-31T11:38:06.533Z,76.80
2022-08-31T11:39:03.631Z,77.48
2022-08-31T11:40:00.394Z,76.98
2022-08-31T11:41:03.905Z,77.14
2022-08-31T11:42:01.004Z,76.37
2022-08-31T11:43:01.301Z,75.18
2022-08-31T11:43:58.205Z,75.52
2022-08-31T11:45:05.609Z,74.29
2022-08-31T11:46:34.424Z,74.27
2022-08-31T11:47:41.567Z,75.09
2022-08-31T11:48:51.489Z,75.19
2022-08-31T11:49:54.298Z,75.81
2022-08-31T11:51:07.384Z,74.68
2022-08-31T11:52:08.440Z,71.59
2022-08-31T11:53:33.106Z,72.03
2022-08-31T11:54:35.723Z,73.41
2022-08-31T11:55:48.544Z,73.95
2022-08-31T11:56:47.556Z,74.36
2022-08-31T11:58:10.111Z,72.62
2022-08-31T11:59:34.109Z,72.75
2022-08-31T12:01:03.004Z,73.16
2022-08-31T12:02:21.190Z,72.04
2022-08-31T12:03:37.122Z,74.22
2022-08-31T12:04:41.979Z,72.61
2022-08-31T12:05:57.998Z,69.94
2022-08-31T12:06:59.482Z,71.13
2022-08-31T12:07:57.211Z,69.82
2022-08-31T12:09:46.382Z,70.70
2022-08-31T12:11:04.524Z,70.40
2022-08-31T12:12:21.727Z,70.44
2022-08-31T12:13:34.183Z,67.42
2022-08-31T12:14:57.547Z,68.40
2022-08-31T12:16:23.265Z,68.79
2022-08-31T12:17:33.910Z,71.04
2022-08-31T12:18:48.697Z,67.80
2022-08-31T12:20:02.451Z,67.88
2022-08-31T12:21:36.131Z,68.71
2022-08-31T12:22:57.291Z,71.20
2022-08-31T12:24:02.961Z,68.16
2022-08-31T12:25:09.306Z,69.17
2022-08-31T12:26:18.038Z,67.52
2022-08-31T12:27:39.954Z,66.67
2022-08-31T12:28:55.316Z,65.77
2022-08-31T12:30:06.767Z,65.65
2022-08-31T12:31:10.105Z,66.84
2022-08-31T12:32:54.524Z,67.42
2022-08-31T12:34:12.208Z,65.03
2022-08-31T12:35:08.838Z,64.29
2022-08-31T12:36:33.151Z,66.85
2022-08-31T12:37:32.888Z,69.93
2022-08-31T12:38:30.604Z,65.00
2022-08-31T12:39:28.954Z,64.91
2022-08-31T12:40:28.280Z,64.32
2022-08-31T12:41:25.602Z,67.11
2022-08-31T12:42:22.344Z,68.70
2022-08-31T12:43:39.921Z,68.45
2022-08-31T12:44:41.902Z,67.03
2022-08-31T12:46:02.097Z,66.20
2022-08-31T12:47:04.636Z,65.14
2022-08-31T12:48:36.398Z,66.61
2022-08-31T12:49:36.041Z,66.54
2022-08-31T12:50:45.086Z,64.58
2022-08-31T12:51:50.782Z,66.35
2022-08-31T12:53:10.223Z,65.48
2022-08-31T12:54:25.428Z,63.04
2022-08-31T12:55:48.977Z,61.05
2022-08-31T12:57:13.909Z,61.78
2022-08-31T12:58:42.680Z,58.97
2022-08-31T13:00:17.789Z,59.78
2022-08-31T13:01:21.604Z,59.70
2022-08-31T13:02:20.454Z,57.34
2022-08-31T13:03:17.437Z,59.73
2022-08-31T13:04:16.704Z,59.74
2022-08-31T13:05:30.048Z,59.43
2022-08-31T13:06:31.415Z,58.28
2022-08-31T13:07:34.142Z,57.19
2022-08-31T13:08:39.634Z,57.54
2022-08-31T13:09:36.394Z,57.40
2022-08-31T13:10:37.928Z,59.66
2022-08-31T13:11:40.696Z,60.97
2022-08-31T13:12:39.048Z,59.48
2022-08-31T13:13:37.701Z,60.38
2022-08-31T13:14:43.033Z,63.19
2022-08-31T13:15:42.388Z,61.77
2022-08-31T13:16:42.951Z,60.62
2022-08-31T13:17:39.792Z,59.71
2022-08-31T13:18:36.873Z,61.35
2022-08-31T13:19:35.261Z,63.15
2022-08-31T13:20:44.311Z,61.00
2022-08-31T13:21:41.484Z,61.17